createdAt,value
2023-01-13T00:01:30.672Z,2.58
2023-01-13T00:04:01.204Z,0.88
2023-01-13T00:06:29.789Z,2.00
2023-01-13T00:08:58.299Z,1.50
2023-01-13T00:11:27.797Z,1.25
2023-01-13T00:13:57.657Z,3.45
2023-01-13T00:16:25.701Z,1.27
2023-01-13T00:18:53.695Z,2.83
2023-01-13T00:21:23.417Z,1.63
2023-01-13T00:23:54.283Z,2.00
2023-01-13T00:26:24.843Z,2.10
2023-01-13T00:28:57.412Z,0.77
2023-01-13T00:31:27.916Z,1.15
2023-01-13T00:33:58.801Z,0.50
2023-01-13T00:36:27.717Z,0.40
2023-01-13T00:38:55.758Z,0.88
2023-01-13T00:41:26.339Z,0.93
2023-01-13T00:43:53.870Z,2.90
2023-01-13T00:46:23.628Z,0.67
2023-01-13T00:48:53.488Z,3.22
2023-01-13T00:51:23.631Z,2.00
2023-01-13T00:53:53.523Z,1.77
2023-01-13T00:56:39.298Z,1.10
2023-01-13T00:59:08.686Z,2.60
2023-01-13T01:01:36.889Z,1.13
2023-01-13T01:04:06.726Z,2.17
2023-01-13T01:06:35.176Z,0.75
2023-01-13T01:09:03.846Z,2.15
2023-01-13T01:11:33.627Z,1.63
2023-01-13T01:14:04.048Z,1.48
2023-01-13T01:16:35.130Z,2.03
2023-01-13T01:19:04.223Z,2.70
2023-01-13T01:21:33.819Z,0.80
2023-01-13T01:24:04.195Z,1.23
2023-01-13T01:26:33.724Z,4.40
2023-01-13T01:29:02.857Z,1.50
2023-01-13T01:31:33.577Z,3.75
2023-01-13T01:34:05.235Z,1.00
2023-01-13T01:36:35.661Z,2.80
2023-01-13T01:39:04.170Z,1.83
2023-01-13T01:41:34.198Z,2.40
2023-01-13T01:44:07.409Z,1.48
2023-01-13T01:46:38.368Z,2.03
2023-01-13T01:49:12.687Z,2.97
2023-01-13T01:51:46.561Z,3.75
2023-01-13T01:54:19.231Z,0.90
2023-01-13T01:56:48.746Z,3.25
2023-01-13T01:59:17.582Z,2.08
2023-01-13T02:01:46.279Z,1.67
2023-01-13T02:04:17.647Z,6.38
2023-01-13T02:06:49.252Z,1.65
2023-01-13T02:09:17.191Z,2.88
2023-01-13T02:12:02.764Z,2.30
2023-01-13T02:14:32.610Z,1.00
2023-01-13T02:17:16.844Z,1.15
2023-01-13T02:20:25.830Z,1.60
2023-01-13T02:23:41.361Z,1.75
2023-01-13T02:26:33.986Z,1.67
2023-01-13T02:29:31.488Z,1.47
2023-01-13T02:32:07.984Z,2.25
2023-01-13T02:34:41.587Z,1.00
2023-01-13T02:37:15.972Z,2.80
2023-01-13T02:39:54.862Z,0.55
2023-01-13T02:42:44.779Z,0.40
2023-01-13T02:45:17.505Z,1.00
2023-01-13T02:47:50.426Z,2.83
2023-01-13T02:50:20.976Z,1.67
2023-01-13T02:52:53.112Z,3.75
2023-01-13T02:55:26.907Z,1.83
2023-01-13T02:57:56.789Z,1.48
2023-01-13T03:00:25.113Z,1.67
2023-01-13T03:02:54.559Z,3.03
2023-01-13T03:05:22.595Z,0.93
2023-01-13T03:08:03.292Z,2.20
2023-01-13T03:10:47.463Z,1.55
2023-01-13T03:13:47.463Z,1.05
2023-01-13T03:16:24.715Z,1.15
2023-01-13T03:19:02.926Z,1.23
2023-01-13T03:21:37.483Z,0.67
2023-01-13T03:24:10.119Z,0.90
2023-01-13T03:26:42.404Z,2.35
2023-01-13T03:29:16.360Z,1.77
2023-01-13T03:31:52.616Z,0.73
2023-01-13T03:34:26.364Z,0.97
2023-01-13T03:36:57.059Z,0.70
2023-01-13T03:39:30.715Z,1.20
2023-01-13T03:42:01.189Z,0.93
2023-01-13T03:44:33.845Z,1.98
2023-01-13T03:47:12.742Z,0.67
2023-01-13T03:49:48.826Z,1.50
2023-01-13T03:52:23.546Z,3.10
2023-01-13T03:54:54.903Z,2.80
2023-01-13T03:57:27.549Z,0.90
2023-01-13T03:59:58.880Z,2.43
2023-01-13T04:02:37.703Z,2.47
2023-01-13T04:05:10.135Z,0.95
2023-01-13T04:07:53.212Z,2.22
2023-01-13T04:10:27.258Z,1.05
2023-01-13T04:13:04.348Z,2.73
2023-01-13T04:15:35.914Z,1.10
2023-01-13T04:18:11.458Z,0.63
2023-01-13T04:20:42.076Z,1.38
2023-01-13T04:23:11.191Z,1.08
2023-01-13T04:25:39.380Z,0.87
2023-01-13T04:28:07.874Z,0.80
2023-01-13T04:30:36.476Z,2.63
2023-01-13T04:33:05.446Z,2.05
2023-01-13T04:35:33.857Z,1.05
2023-01-13T04:38:04.614Z,1.57
2023-01-13T04:40:32.623Z,0.57
2023-01-13T04:43:00.753Z,1.17
2023-01-13T04:45:29.235Z,1.17
2023-01-13T04:47:57.337Z,0.50
2023-01-13T04:50:26.587Z,0.83
2023-01-13T04:52:56.240Z,1.05
2023-01-13T04:55:26.525Z,1.67
2023-01-13T04:57:54.544Z,3.72
2023-01-13T05:00:24.094Z,2.33
2023-01-13T05:02:52.780Z,2.57
2023-01-13T05:05:20.675Z,2.22
2023-01-13T05:07:48.872Z,2.10
2023-01-13T05:10:17.283Z,1.60
2023-01-13T05:13:04.721Z,2.60
2023-01-13T05:15:50.267Z,1.30
2023-01-13T05:18:19.354Z,1.52
2023-01-13T05:20:47.276Z,4.43
2023-01-13T05:23:32.622Z,1.70
2023-01-13T05:26:00.469Z,2.40
2023-01-13T05:28:32.578Z,3.60
2023-01-13T05:31:00.485Z,3.65
2023-01-13T05:33:28.300Z,1.60
2023-01-13T05:35:56.326Z,2.22
2023-01-13T05:38:24.134Z,3.25
2023-01-13T05:41:09.714Z,2.00
2023-01-13T05:43:39.068Z,1.58
2023-01-13T05:46:09.135Z,2.17
2023-01-13T05:48:39.405Z,1.60
2023-01-13T05:51:10.005Z,1.27
2023-01-13T05:53:40.936Z,1.57
2023-01-13T05:56:10.063Z,1.00
2023-01-13T05:58:39.298Z,1.77
2023-01-13T06:01:09.233Z,2.47
2023-01-13T06:03:37.596Z,2.90
2023-01-13T06:06:09.219Z,2.23
2023-01-13T06:08:39.559Z,2.10
2023-01-13T06:11:07.724Z,1.80
2023-01-13T06:13:35.747Z,1.65
2023-01-13T06:16:05.267Z,3.83
2023-01-13T06:18:33.287Z,2.33
2023-01-13T06:21:01.123Z,2.50
2023-01-13T06:23:29.437Z,12.07
2023-01-13T06:26:03.667Z,6.75
2023-01-13T06:28:33.365Z,6.63
2023-01-13T06:31:07.632Z,7.57
2023-01-13T06:33:39.123Z,7.43
2023-01-13T06:36:11.410Z,4.00
2023-01-13T06:38:42.257Z,3.08
2023-01-13T06:41:10.345Z,4.07
2023-01-13T06:43:38.482Z,3.37
2023-01-13T06:46:07.968Z,2.33
2023-01-13T06:48:36.283Z,3.22
2023-01-13T06:51:04.300Z,2.67
2023-01-13T06:53:32.464Z,2.40
2023-01-13T06:56:00.314Z,1.90
2023-01-13T06:58:28.178Z,3.50
2023-01-13T07:00:56.370Z,4.35
2023-01-13T07:03:25.558Z,3.20
2023-01-13T07:05:54.961Z,2.13
2023-01-13T07:08:23.373Z,1.20
2023-01-13T07:10:53.047Z,1.27
2023-01-13T07:13:39.251Z,2.40
2023-01-13T07:16:09.691Z,1.67
2023-01-13T07:18:39.349Z,2.50
2023-01-13T07:21:09.868Z,6.43
2023-01-13T07:23:39.939Z,9.52
2023-01-13T07:26:08.689Z,3.10
2023-01-13T07:28:37.015Z,1.23
2023-01-13T07:31:05.138Z,2.35
2023-01-13T07:33:33.451Z,3.00
2023-01-13T07:36:04.511Z,2.60
2023-01-13T07:38:33.455Z,2.38
2023-01-13T07:41:22.968Z,1.20
2023-01-13T07:43:50.126Z,2.33
2023-01-13T07:46:18.521Z,3.63
2023-01-13T07:48:48.351Z,1.40
2023-01-13T07:51:17.608Z,2.65
2023-01-13T07:53:45.426Z,1.55
2023-01-13T07:56:13.579Z,1.20
2023-01-13T07:58:41.441Z,1.47
2023-01-13T08:01:09.940Z,1.63
2023-01-13T08:03:37.932Z,4.00
2023-01-13T08:06:06.213Z,2.25
2023-01-13T08:08:35.681Z,1.90
2023-01-13T08:11:05.653Z,1.47
2023-01-13T08:13:33.768Z,1.70
2023-01-13T08:16:03.526Z,2.45
2023-01-13T08:18:34.845Z,4.20
2023-01-13T08:21:04.478Z,2.38
2023-01-13T08:23:32.186Z,2.03
2023-01-13T08:26:03.467Z,1.40
2023-01-13T08:28:32.349Z,1.92
2023-01-13T08:31:01.265Z,1.83
2023-01-13T08:33:30.281Z,2.22
2023-01-13T08:35:59.032Z,2.77
2023-01-13T08:38:27.137Z,3.05
2023-01-13T08:40:54.771Z,4.05
2023-01-13T08:43:24.144Z,1.75
2023-01-13T08:45:59.194Z,1.83
2023-01-13T08:48:29.766Z,1.97
2023-01-13T08:51:03.400Z,3.40
2023-01-13T08:53:31.443Z,1.50
2023-01-13T08:55:59.386Z,2.08
2023-01-13T08:58:28.606Z,4.60
2023-01-13T09:00:56.294Z,3.47
2023-01-13T09:03:24.448Z,3.38
2023-01-13T09:05:52.339Z,2.15
2023-01-13T09:08:20.447Z,2.58
2023-01-13T09:10:48.291Z,13.15
2023-01-13T09:13:15.616Z,2.53
2023-01-13T09:15:47.339Z,1.70
2023-01-13T09:18:15.705Z,1.35
2023-01-13T09:20:44.589Z,3.05
2023-01-13T09:23:12.498Z,2.80
2023-01-13T09:25:40.713Z,1.93
2023-01-13T09:28:09.163Z,3.20
2023-01-13T09:30:38.459Z,2.60
2023-01-13T09:33:24.997Z,1.33
2023-01-13T09:35:53.151Z,4.90
2023-01-13T09:38:21.449Z,3.30
2023-01-13T09:40:51.158Z,3.90
2023-01-13T09:43:41.798Z,1.80
2023-01-13T09:46:31.570Z,1.58
2023-01-13T09:49:03.737Z,2.63
2023-01-13T09:51:35.389Z,3.43
2023-01-13T09:54:10.162Z,1.50
2023-01-13T09:56:38.136Z,0.90
2023-01-13T09:59:06.505Z,1.45
2023-01-13T10:01:42.855Z,0.90
2023-01-13T10:04:15.317Z,1.13
2023-01-13T10:06:45.475Z,1.15
2023-01-13T10:09:18.613Z,0.85
2023-01-13T10:12:09.673Z,1.05
2023-01-13T10:14:43.905Z,0.77
2023-01-13T10:17:20.059Z,3.03
2023-01-13T10:19:53.476Z,1.63
2023-01-13T10:22:48.462Z,1.42
2023-01-13T10:25:27.020Z,1.45
2023-01-13T10:27:56.987Z,1.90
2023-01-13T10:30:31.438Z,1.57
2023-01-13T10:33:01.711Z,1.52
2023-01-13T10:35:52.135Z,1.58
2023-01-13T10:38:22.073Z,1.60
2023-01-13T10:40:51.599Z,1.35
2023-01-13T10:43:19.523Z,1.63
2023-01-13T10:45:59.138Z,4.05
2023-01-13T10:48:35.266Z,0.93
2023-01-13T10:51:29.153Z,1.05
2023-01-13T10:54:02.852Z,2.15
2023-01-13T10:56:33.774Z,0.80
2023-01-13T10:59:23.911Z,1.13
2023-01-13T11:02:03.827Z,0.38
2023-01-13T11:04:36.179Z,0.20
2023-01-13T11:07:07.125Z,0.50
2023-01-13T11:09:35.026Z,0.77
2023-01-13T11:12:03.357Z,1.38
2023-01-13T11:14:40.549Z,0.80
2023-01-13T11:17:18.016Z,1.27
2023-01-13T11:19:52.630Z,0.20
2023-01-13T11:22:28.842Z,3.20
2023-01-13T11:25:01.428Z,2.38
2023-01-13T11:27:40.917Z,1.02
2023-01-13T11:30:23.445Z,1.60
2023-01-13T11:33:12.185Z,2.60
2023-01-13T11:35:44.795Z,1.27
2023-01-13T11:38:28.639Z,2.58
2023-01-13T11:41:02.109Z,1.45
2023-01-13T11:43:35.817Z,2.85
2023-01-13T11:46:04.098Z,2.15
2023-01-13T11:48:37.142Z,1.80
2023-01-13T11:51:12.004Z,4.63
2023-01-13T11:53:59.351Z,7.50
2023-01-13T11:56:46.675Z,4.13
2023-01-13T11:59:34.703Z,8.45
2023-01-13T12:02:17.456Z,8.07
2023-01-13T12:04:58.403Z,7.35
2023-01-13T12:07:41.655Z,12.85
2023-01-13T12:10:18.028Z,13.52
2023-01-13T12:12:54.359Z,6.05
2023-01-13T12:15:51.571Z,3.83
2023-01-13T12:18:35.622Z,2.05
2023-01-13T12:21:19.474Z,1.27
2023-01-13T12:23:56.697Z,1.67
2023-01-13T12:26:27.562Z,1.77
2023-01-13T12:28:59.752Z,2.70
2023-01-13T12:31:28.599Z,4.68
2023-01-13T12:34:05.506Z,5.75
2023-01-13T12:36:41.759Z,2.88
2023-01-13T12:39:19.876Z,5.63
2023-01-13T12:42:12.500Z,4.73
2023-01-13T12:45:20.899Z,9.32
2023-01-13T12:47:49.509Z,9.68
2023-01-13T12:50:42.959Z,3.97
2023-01-13T12:53:38.720Z,4.68
2023-01-13T12:56:30.525Z,3.87
2023-01-13T12:59:35.978Z,3.15
2023-01-13T13:02:27.235Z,2.33
2023-01-13T13:04:57.631Z,1.70
2023-01-13T13:07:35.280Z,4.05
2023-01-13T13:10:07.266Z,3.47
2023-01-13T13:13:11.642Z,3.38
2023-01-13T13:15:40.942Z,1.90
2023-01-13T13:18:27.264Z,3.70
2023-01-13T13:21:16.134Z,2.67
2023-01-13T13:24:05.649Z,4.50
2023-01-13T13:26:46.886Z,4.25
2023-01-13T13:29:42.343Z,3.38
2023-01-13T13:32:41.210Z,5.10
2023-01-13T13:35:32.192Z,6.88
2023-01-13T13:38:30.586Z,2.20
2023-01-13T13:41:17.726Z,1.20
2023-01-13T13:44:04.310Z,2.90
2023-01-13T13:46:50.610Z,3.35
2023-01-13T13:49:22.221Z,2.95
2023-01-13T13:51:56.058Z,5.30
2023-01-13T13:54:24.424Z,4.75
2023-01-13T13:56:53.117Z,2.80
2023-01-13T13:59:24.420Z,2.63
2023-01-13T14:02:02.156Z,3.65
2023-01-13T14:04:36.966Z,2.63
2023-01-13T14:07:18.347Z,2.97
2023-01-13T14:09:47.871Z,2.58
2023-01-13T14:12:19.888Z,5.80
2023-01-13T14:14:49.518Z,4.65
2023-01-13T14:17:22.483Z,3.37
2023-01-13T14:20:05.192Z,3.72
2023-01-13T14:22:33.944Z,3.33
2023-01-13T14:25:02.162Z,15.02
2023-01-13T14:27:31.105Z,10.32
2023-01-13T14:30:01.732Z,4.30
2023-01-13T14:32:35.925Z,3.13
2023-01-13T14:35:07.666Z,4.25
2023-01-13T14:37:41.691Z,7.47
2023-01-13T14:40:47.288Z,9.52
2023-01-13T14:43:17.654Z,4.80
2023-01-13T14:45:57.268Z,7.80
2023-01-13T14:48:33.453Z,7.18
2023-01-13T14:51:05.927Z,5.15
2023-01-13T14:53:43.257Z,4.95
2023-01-13T14:56:46.400Z,5.33
2023-01-13T14:59:37.671Z,4.65
2023-01-13T15:02:37.180Z,9.05
2023-01-13T15:05:38.397Z,12.32
2023-01-13T15:08:26.152Z,7.95
2023-01-13T15:11:00.051Z,7.43
2023-01-13T15:13:35.444Z,8.05
2023-01-13T15:16:07.061Z,8.82
2023-01-13T15:18:40.107Z,13.02
2023-01-13T15:21:08.542Z,20.60
2023-01-13T15:23:39.873Z,14.33
2023-01-13T15:26:18.736Z,7.32
2023-01-13T15:28:49.955Z,13.05
2023-01-13T15:31:17.904Z,15.52
2023-01-13T15:33:45.922Z,9.18
2023-01-13T15:36:28.650Z,15.77
2023-01-13T15:39:00.844Z,14.02
2023-01-13T15:41:46.629Z,12.13
2023-01-13T15:44:33.769Z,15.05
2023-01-13T15:47:04.183Z,8.27
2023-01-13T15:49:36.685Z,8.73
2023-01-13T15:52:07.651Z,9.05
2023-01-13T15:54:37.273Z,6.55
2023-01-13T15:57:05.460Z,5.35
2023-01-13T15:59:34.441Z,6.88
2023-01-13T16:02:02.444Z,6.70
2023-01-13T16:04:30.285Z,15.25
2023-01-13T16:06:58.294Z,11.02
2023-01-13T16:09:25.928Z,10.02
2023-01-13T16:11:55.210Z,5.15
2023-01-13T16:14:22.777Z,6.03
2023-01-13T16:16:51.876Z,3.33
2023-01-13T16:19:19.467Z,6.22
2023-01-13T16:21:47.468Z,4.63
2023-01-13T16:24:15.326Z,4.05
2023-01-13T16:26:43.174Z,11.50
2023-01-13T16:29:13.385Z,6.28
2023-01-13T16:31:41.369Z,8.48
2023-01-13T16:34:10.309Z,5.07
2023-01-13T16:36:38.529Z,4.22
2023-01-13T16:39:21.588Z,6.43
2023-01-13T16:41:49.532Z,5.80
2023-01-13T16:44:19.035Z,6.95
2023-01-13T16:46:47.843Z,8.88
2023-01-13T16:49:17.434Z,6.60
2023-01-13T16:51:45.391Z,7.47
2023-01-13T16:54:13.228Z,6.18
2023-01-13T16:56:41.375Z,7.82
2023-01-13T16:59:11.958Z,11.75
2023-01-13T17:01:43.713Z,8.93
2023-01-13T17:04:16.476Z,9.67
2023-01-13T17:06:52.460Z,9.20
2023-01-13T17:09:22.460Z,7.78
2023-01-13T17:11:50.526Z,6.30
2023-01-13T17:14:19.915Z,7.10
2023-01-13T17:16:49.131Z,6.57
2023-01-13T17:19:18.226Z,5.40
2023-01-13T17:21:47.202Z,2.95
2023-01-13T17:24:15.629Z,6.63
2023-01-13T17:26:47.324Z,6.78
2023-01-13T17:29:16.655Z,7.93
2023-01-13T17:31:44.683Z,6.88
2023-01-13T17:34:14.371Z,5.95
2023-01-13T17:36:43.541Z,4.10
2023-01-13T17:39:16.775Z,5.82
2023-01-13T17:41:45.173Z,5.23
2023-01-13T17:44:15.006Z,7.43
2023-01-13T17:46:43.363Z,4.50
2023-01-13T17:49:14.032Z,7.35
2023-01-13T17:51:42.421Z,7.82
2023-01-13T17:54:12.382Z,7.87
2023-01-13T17:56:40.911Z,4.25
2023-01-13T17:59:10.329Z,6.03
2023-01-13T18:01:39.760Z,6.47
2023-01-13T18:04:08.418Z,5.88
2023-01-13T18:06:37.339Z,5.63
2023-01-13T18:09:05.685Z,5.70
2023-01-13T18:11:33.325Z,7.65
2023-01-13T18:14:01.381Z,6.13
2023-01-13T18:16:32.165Z,4.13
2023-01-13T18:19:14.307Z,7.33
2023-01-13T18:22:01.353Z,8.50
2023-01-13T18:24:46.397Z,4.90
2023-01-13T18:27:22.960Z,6.72
2023-01-13T18:29:52.502Z,5.40
2023-01-13T18:32:21.182Z,9.50
2023-01-13T18:34:50.450Z,11.23
2023-01-13T18:37:23.436Z,11.02
2023-01-13T18:39:51.156Z,10.25
2023-01-13T18:42:36.654Z,10.40
2023-01-13T18:45:04.958Z,7.73
2023-01-13T18:47:33.760Z,5.05
2023-01-13T18:50:01.740Z,7.80
2023-01-13T18:52:31.090Z,6.20
2023-01-13T18:54:58.940Z,5.18
2023-01-13T18:57:26.921Z,6.53
2023-01-13T18:59:56.530Z,8.32
2023-01-13T19:02:26.475Z,3.35
2023-01-13T19:04:54.773Z,4.38
2023-01-13T19:07:26.050Z,9.18
2023-01-13T19:09:57.655Z,17.73
2023-01-13T19:12:27.735Z,9.52
2023-01-13T19:14:56.234Z,9.00
2023-01-13T19:17:28.587Z,6.22
2023-01-13T19:19:58.206Z,8.13
2023-01-13T19:22:30.392Z,7.03
2023-01-13T19:25:00.148Z,5.68
2023-01-13T19:27:28.716Z,10.95
2023-01-13T19:30:00.773Z,5.50
2023-01-13T19:32:30.909Z,10.15
2023-01-13T19:34:59.784Z,9.23
2023-01-13T19:37:30.628Z,10.60
2023-01-13T19:40:00.812Z,10.57
2023-01-13T19:42:46.758Z,11.27
2023-01-13T19:45:27.632Z,9.20
2023-01-13T19:47:55.949Z,8.27
2023-01-13T19:50:24.243Z,6.20
2023-01-13T19:52:52.107Z,5.55
2023-01-13T19:55:21.579Z,12.05
2023-01-13T19:57:49.513Z,9.85
2023-01-13T20:00:20.970Z,9.50
2023-01-13T20:02:52.153Z,8.77
2023-01-13T20:05:22.828Z,7.13
2023-01-13T20:07:51.387Z,7.07
2023-01-13T20:10:22.845Z,5.53
2023-01-13T20:12:50.735Z,4.77
2023-01-13T20:15:18.877Z,6.35
2023-01-13T20:17:46.960Z,3.65
2023-01-13T20:20:16.071Z,4.25
2023-01-13T20:22:44.332Z,2.88
2023-01-13T20:25:13.291Z,6.10
2023-01-13T20:27:42.338Z,6.43
2023-01-13T20:30:13.780Z,5.80
2023-01-13T20:32:41.961Z,5.85
2023-01-13T20:35:10.690Z,4.00
2023-01-13T20:37:40.580Z,7.57
2023-01-13T20:40:10.808Z,5.53
2023-01-13T20:42:45.188Z,9.05
2023-01-13T20:45:20.788Z,7.55
2023-01-13T20:47:48.972Z,4.72
2023-01-13T20:50:17.844Z,6.17
2023-01-13T20:52:46.457Z,8.40
2023-01-13T20:55:14.952Z,4.45
2023-01-13T20:57:42.884Z,3.42
2023-01-13T21:00:11.913Z,5.32
2023-01-13T21:02:44.431Z,5.33
2023-01-13T21:05:12.340Z,6.00
2023-01-13T21:07:40.495Z,8.73
2023-01-13T21:10:11.512Z,6.88
2023-01-13T21:12:56.648Z,2.70
2023-01-13T21:15:25.948Z,4.73
2023-01-13T21:18:12.525Z,5.00
2023-01-13T21:20:40.712Z,6.75
2023-01-13T21:23:10.733Z,3.38
2023-01-13T21:25:40.616Z,2.65
2023-01-13T21:28:11.758Z,3.33
2023-01-13T21:30:41.028Z,4.63
2023-01-13T21:33:15.205Z,2.42
2023-01-13T21:35:43.601Z,3.92
2023-01-13T21:38:12.337Z,3.67
2023-01-13T21:40:40.902Z,6.73
2023-01-13T21:43:30.845Z,4.15
2023-01-13T21:46:16.280Z,5.15
2023-01-13T21:48:46.345Z,4.00
2023-01-13T21:51:14.507Z,4.63
2023-01-13T21:53:42.384Z,5.20
2023-01-13T21:56:10.511Z,6.25
2023-01-13T21:58:40.106Z,4.40
2023-01-13T22:01:10.070Z,6.35
2023-01-13T22:03:54.266Z,7.25
2023-01-13T22:06:23.825Z,5.50
2023-01-13T22:08:52.263Z,2.95
2023-01-13T22:11:20.124Z,2.65
2023-01-13T22:14:05.889Z,4.80
2023-01-13T22:16:39.656Z,4.65
2023-01-13T22:19:09.485Z,5.33
2023-01-13T22:21:38.675Z,4.22
2023-01-13T22:24:07.992Z,4.72
2023-01-13T22:26:36.317Z,3.83
2023-01-13T22:29:05.105Z,3.78
2023-01-13T22:31:33.313Z,3.43
2023-01-13T22:34:01.621Z,6.85
2023-01-13T22:36:30.419Z,5.40
2023-01-13T22:39:00.814Z,4.72
2023-01-13T22:41:31.675Z,2.75
2023-01-13T22:43:59.688Z,4.00
2023-01-13T22:46:27.727Z,4.20
2023-01-13T22:48:56.372Z,5.90
2023-01-13T22:51:24.086Z,4.47
2023-01-13T22:53:52.706Z,4.20
2023-01-13T22:56:24.842Z,3.43
2023-01-13T22:58:56.698Z,4.00
2023-01-13T23:01:25.965Z,3.40
2023-01-13T23:03:54.535Z,3.40
2023-01-13T23:06:24.617Z,5.43
2023-01-13T23:08:53.287Z,5.90
2023-01-13T23:11:25.081Z,2.83
2023-01-13T23:13:59.967Z,4.68
2023-01-13T23:16:29.498Z,5.30
2023-01-13T23:18:58.027Z,4.90
2023-01-13T23:21:27.935Z,3.50
2023-01-13T23:23:58.447Z,7.70
2023-01-13T23:26:28.965Z,7.93
2023-01-13T23:29:00.525Z,7.75
2023-01-13T23:31:28.473Z,8.43
2023-01-13T23:33:56.393Z,4.63
2023-01-13T23:36:26.417Z,4.95
2023-01-13T23:38:54.859Z,5.47
2023-01-13T23:41:24.728Z,6.03
2023-01-13T23:43:55.089Z,6.22
2023-01-13T23:46:23.754Z,3.07
2023-01-13T23:48:52.425Z,6.47
2023-01-13T23:51:22.255Z,3.97
2023-01-13T23:53:51.325Z,6.85
2023-01-13T23:56:20.942Z,3.85
2023-01-13T23:58:49.372Z,2.27
